Time;durP1;ratioP1;P1;durP2;ratioP2;P2;SDS_P1;SDS_P2;PMS_P1;PMS_P2;Temp;Humidity;BMP_temperature;BMP_pressure;BME280_temperature;BME280_humidity;BME280_pressure;Samples;Min_cycle;Max_cycle;Signal;HPM_P1;HPM_P2
2023/03/18 00:00:08;;;;;;;9.57;7.38;;;2.60;1.00;;;;;;4973609;28;20027;-49
2023/03/18 00:02:35;;;;;;;13.45;9.02;;;2.50;1.00;;;;;;4973589;28;20113;-51
2023/03/18 00:05:01;;;;;;;12.98;7.65;;;2.50;1.00;;;;;;4972202;28;20027;-51
2023/03/18 00:07:27;;;;;;;14.80;8.77;;;2.50;1.00;;;;;;4973660;28;20019;-47
2023/03/18 00:09:52;;;;;;;10.20;7.65;;;2.40;1.00;;;;;;4973236;28;20035;-48
2023/03/18 00:12:18;;;;;;;18.77;7.88;;;2.40;1.00;;;;;;4973531;28;20019;-48
2023/03/18 00:14:45;;;;;;;19.10;8.48;;;2.40;1.00;;;;;;4973555;28;20502;-49
2023/03/18 00:17:11;;;;;;;13.80;7.72;;;2.40;1.00;;;;;;4974271;28;20336;-50
2023/03/18 00:19:36;;;;;;;12.68;7.75;;;2.20;1.00;;;;;;4973509;28;20030;-51
2023/03/18 00:22:02;;;;;;;13.95;7.97;;;2.20;1.00;;;;;;4990735;28;20056;-47
2023/03/18 00:24:28;;;;;;;12.63;8.30;;;2.10;1.00;;;;;;4992562;28;20026;-53
2023/03/18 00:26:54;;;;;;;11.15;7.97;;;2.10;1.00;;;;;;4992469;28;20051;-49
2023/03/18 00:29:32;;;;;;;21.40;7.35;;;2.20;1.00;;;;;;4992550;28;20026;-53
2023/03/18 00:31:58;;;;;;;9.75;8.13;;;2.10;1.00;;;;;;4990294;28;20022;-49
2023/03/18 00:34:24;;;;;;;10.63;8.05;;;2.10;1.00;;;;;;4992165;28;20053;-49
2023/03/18 00:36:55;;;;;;;16.77;7.57;;;2.10;1.00;;;;;;4992360;28;20022;-49
2023/03/18 00:39:25;;;;;;;10.93;7.60;;;2.10;1.00;;;;;;4992532;28;20026;-49
2023/03/18 00:41:53;;;;;;;8.95;7.47;;;2.10;1.00;;;;;;4992347;28;20085;-50
2023/03/18 00:44:18;;;;;;;11.27;7.97;;;2.10;1.00;;;;;;4992374;28;20033;-46
2023/03/18 00:46:44;;;;;;;15.45;7.93;;;2.10;1.00;;;;;;4991908;28;20023;-47
2023/03/18 00:49:10;;;;;;;11.95;8.52;;;2.10;1.00;;;;;;4992228;28;20018;-46
2023/03/18 00:51:37;;;;;;;12.40;8.18;;;2.00;1.00;;;;;;4992031;28;20054;-47
2023/03/18 00:54:06;;;;;;;10.40;7.97;;;2.00;1.00;;;;;;4992073;28;20030;-48
2023/03/18 00:56:33;;;;;;;11.88;8.05;;;2.00;1.00;;;;;;4990995;28;20061;-51
2023/03/18 00:58:59;;;;;;;10.45;7.47;;;1.90;1.00;;;;;;4992304;28;20098;-50
2023/03/18 01:01:28;;;;;;;14.63;7.80;;;1.70;1.00;;;;;;4992473;28;20050;-48
2023/03/18 01:03:54;;;;;;;10.77;8.32;;;1.70;1.00;;;;;;4992207;28;20022;-48
2023/03/18 01:06:23;;;;;;;16.50;8.30;;;1.70;1.00;;;;;;4992001;28;20080;-50
2023/03/18 01:08:50;;;;;;;10.27;7.63;;;1.60;1.00;;;;;;4992209;28;20122;-49
2023/03/18 01:11:17;;;;;;;11.02;8.15;;;1.60;1.00;;;;;;4992200;28;20053;-48
2023/03/18 01:13:43;;;;;;;10.90;8.18;;;1.60;1.00;;;;;;4992165;28;20018;-50
2023/03/18 01:16:09;;;;;;;15.75;7.68;;;1.60;1.00;;;;;;4991904;28;20044;-51
2023/03/18 01:18:36;;;;;;;11.35;7.78;;;1.60;1.00;;;;;;4992129;28;20421;-48
2023/03/18 01:21:02;;;;;;;32.47;8.73;;;1.50;1.00;;;;;;4981156;28;20166;-48
2023/03/18 01:23:29;;;;;;;17.80;8.82;;;1.50;1.00;;;;;;4972580;28;20169;-51
2023/03/18 01:25:55;;;;;;;10.57;7.82;;;1.40;1.00;;;;;;4972400;28;20027;-49
2023/03/18 01:28:21;;;;;;;11.93;7.78;;;1.40;5.40;;;;;;4971262;28;20382;-46
2023/03/18 01:30:48;;;;;;;18.35;8.07;;;1.40;2.00;;;;;;4972454;28;20117;-50
2023/03/18 01:33:15;;;;;;;10.05;7.63;;;1.30;1.00;;;;;;4972401;28;20063;-48
2023/03/18 01:35:41;;;;;;;10.50;8.32;;;1.20;4.70;;;;;;4972489;28;20027;-50
2023/03/18 01:38:07;;;;;;;13.95;8.85;;;1.30;4.80;;;;;;4972647;28;20521;-48
2023/03/18 01:40:36;;;;;;;11.98;8.00;;;1.30;1.00;;;;;;4972570;28;20406;-52
2023/03/18 01:43:26;;;;;;;14.60;8.27;;;1.30;1.00;;;;;;4972562;28;20023;-47
2023/03/18 01:45:57;;;;;;;11.98;8.00;;;1.30;1.00;;;;;;4972082;28;20093;-48
2023/03/18 01:48:27;;;;;;;11.75;8.52;;;1.30;1.00;;;;;;4972620;28;20031;-49
2023/03/18 01:51:02;;;;;;;9.25;7.63;;;1.20;1.00;;;;;;4978635;28;20027;-47
2023/03/18 01:53:34;;;;;;;10.73;7.75;;;1.20;1.00;;;;;;4992020;28;20046;-47
2023/03/18 01:56:00;;;;;;;14.75;8.60;;;1.20;1.00;;;;;;4991735;28;20030;-49
2023/03/18 01:58:33;;;;;;;15.65;8.65;;;1.20;1.00;;;;;;4992429;28;20059;-52
2023/03/18 02:01:08;;;;;;;11.77;7.90;;;1.10;1.00;;;;;;4995327;28;20080;-48
2023/03/18 02:03:35;;;;;;;12.57;8.93;;;1.10;1.00;;;;;;4995282;28;20403;-47
2023/03/18 02:06:02;;;;;;;11.43;7.68;;;1.10;1.30;;;;;;4995164;28;20718;-48
2023/03/18 02:08:28;;;;;;;23.33;8.70;;;1.10;1.00;;;;;;4994764;28;20543;-48
2023/03/18 02:10:54;;;;;;;9.18;6.70;;;1.10;1.00;;;;;;4994906;28;20070;-50
2023/03/18 02:13:21;;;;;;;9.95;7.20;;;1.00;1.00;;;;;;4995098;28;20072;-47
2023/03/18 02:16:00;;;;;;;9.27;7.10;;;1.00;1.00;;;;;;4994896;28;20031;-50
2023/03/18 02:18:41;;;;;;;10.40;8.20;;;0.90;1.00;;;;;;4993499;28;20355;-48
2023/03/18 02:21:44;;;;;;;8.65;7.85;;;0.90;1.00;;;;;;4995216;28;20027;-50
2023/03/18 02:24:35;;;;;;;15.57;8.02;;;0.80;3.40;;;;;;4994596;28;20037;-49
2023/03/18 02:27:15;;;;;;;11.02;8.07;;;0.80;1.00;;;;;;4994375;28;20096;-49
2023/03/18 02:29:42;;;;;;;13.23;7.85;;;0.80;4.80;;;;;;4994637;28;20041;-46
2023/03/18 02:32:09;;;;;;;10.15;7.68;;;0.80;11.30;;;;;;4995001;28;20080;-48
2023/03/18 02:34:37;;;;;;;10.32;7.85;;;0.80;10.80;;;;;;4994453;28;20030;-47
2023/03/18 02:37:03;;;;;;;10.77;8.45;;;0.80;9.30;;;;;;4994198;28;20026;-48
2023/03/18 02:39:30;;;;;;;12.25;8.38;;;0.80;18.10;;;;;;4994193;28;20023;-49
2023/03/18 02:41:56;;;;;;;12.27;8.95;;;0.70;14.70;;;;;;4994202;28;20417;-47
2023/03/18 02:44:22;;;;;;;11.05;9.00;;;0.80;19.60;;;;;;4994323;28;20041;-51
2023/03/18 02:47:07;;;;;;;14.07;8.07;;;0.80;17.50;;;;;;4993945;28;20025;-47
2023/03/18 02:49:33;;;;;;;10.38;8.10;;;0.70;20.30;;;;;;4994171;28;20030;-48
2023/03/18 02:51:59;;;;;;;10.35;7.50;;;0.70;18.60;;;;;;4994307;28;20033;-48
2023/03/18 02:54:28;;;;;;;12.75;8.10;;;0.70;18.80;;;;;;4992879;28;20025;-48
2023/03/18 02:56:54;;;;;;;13.90;7.90;;;0.70;16.40;;;;;;4994168;28;20026;-50
2023/03/18 02:59:21;;;;;;;12.05;8.50;;;0.70;26.40;;;;;;4994042;28;20077;-48
2023/03/18 03:01:49;;;;;;;15.10;8.70;;;0.70;23.10;;;;;;4993743;28;20037;-50
2023/03/18 03:04:16;;;;;;;10.60;8.20;;;0.80;20.90;;;;;;4993700;28;20473;-50
2023/03/18 03:06:43;;;;;;;16.50;8.35;;;0.70;21.60;;;;;;4993948;28;20034;-49
2023/03/18 03:09:12;;;;;;;16.42;8.93;;;0.70;21.10;;;;;;4993756;28;20034;-48
2023/03/18 03:11:38;;;;;;;12.00;9.70;;;0.70;17.90;;;;;;4992500;28;20018;-48
2023/03/18 03:14:04;;;;;;;15.70;9.55;;;0.70;17.30;;;;;;4993920;28;20050;-46
2023/03/18 03:16:30;;;;;;;13.13;8.23;;;0.70;23.00;;;;;;4993582;28;20080;-49
2023/03/18 03:18:56;;;;;;;11.77;8.07;;;0.60;18.90;;;;;;4993766;28;20026;-50
2023/03/18 03:21:22;;;;;;;14.15;9.30;;;0.60;19.20;;;;;;4993965;28;20109;-49
2023/03/18 03:23:48;;;;;;;12.45;8.18;;;0.60;17.30;;;;;;4993227;28;20034;-46
2023/03/18 03:26:15;;;;;;;14.50;8.75;;;0.60;14.10;;;;;;4993659;28;20041;-47
2023/03/18 03:28:42;;;;;;;11.82;8.77;;;0.60;12.80;;;;;;4983776;28;20045;-48
2023/03/18 03:31:09;;;;;;;17.63;9.13;;;0.50;16.60;;;;;;4974258;28;20045;-50
2023/03/18 03:33:40;;;;;;;11.60;8.70;;;0.50;21.50;;;;;;4987663;28;20022;-53
2023/03/18 03:36:12;;;;;;;11.18;8.13;;;0.50;28.60;;;;;;4991729;28;20429;-49
2023/03/18 03:38:40;;;;;;;15.45;9.70;;;0.50;21.10;;;;;;4993026;28;20029;-50
2023/03/18 03:41:09;;;;;;;17.92;8.40;;;0.50;20.40;;;;;;4993311;28;20365;-47
2023/03/18 03:43:36;;;;;;;16.55;8.93;;;0.40;21.90;;;;;;4992936;28;20030;-49
2023/03/18 03:46:02;;;;;;;14.80;9.50;;;0.40;19.10;;;;;;4993264;28;20030;-50
2023/03/18 03:48:28;;;;;;;14.52;8.82;;;0.40;21.30;;;;;;4993316;28;20105;-48
2023/03/18 03:50:55;;;;;;;16.85;7.50;;;0.40;16.40;;;;;;4993454;28;20442;-46
2023/03/18 03:53:21;;;;;;;11.63;8.27;;;0.40;18.60;;;;;;4993525;28;20485;-48
2023/03/18 03:55:46;;;;;;;15.30;8.80;;;0.40;20.00;;;;;;4992970;28;20038;-48
2023/03/18 03:58:12;;;;;;;14.45;8.45;;;0.40;25.90;;;;;;4992841;28;20026;-47
2023/03/18 04:00:39;;;;;;;11.38;8.60;;;0.30;24.30;;;;;;4992927;28;20485;-48
2023/03/18 04:03:04;;;;;;;17.42;9.88;;;0.30;26.30;;;;;;4993323;28;20030;-50
2023/03/18 04:05:30;;;;;;;16.02;8.60;;;0.30;27.80;;;;;;4993010;28;20378;-46
2023/03/18 04:07:58;;;;;;;14.52;8.80;;;0.30;30.00;;;;;;4992154;28;20026;-51
2023/03/18 04:10:26;;;;;;;11.35;8.18;;;0.30;28.20;;;;;;4990703;28;20022;-49
2023/03/18 04:12:52;;;;;;;12.32;8.98;;;0.30;29.20;;;;;;4979131;28;20034;-49
2023/03/18 04:15:20;;;;;;;10.80;8.45;;;0.30;30.80;;;;;;4992573;28;20038;-49
2023/03/18 04:17:46;;;;;;;16.45;9.35;;;0.30;30.50;;;;;;4991139;28;20030;-51
2023/03/18 04:20:12;;;;;;;11.63;8.43;;;0.30;30.00;;;;;;4992586;28;20022;-46
2023/03/18 04:22:37;;;;;;;20.17;8.90;;;0.30;29.50;;;;;;4992155;28;20133;-48
2023/03/18 04:25:04;;;;;;;13.82;8.25;;;0.20;28.60;;;;;;4992344;28;20036;-46
2023/03/18 04:27:31;;;;;;;16.88;9.02;;;0.20;30.80;;;;;;4992301;28;20406;-47
2023/03/18 04:29:56;;;;;;;13.45;8.40;;;0.20;29.20;;;;;;4991187;28;20042;-50
2023/03/18 04:32:22;;;;;;;17.48;10.18;;;0.20;24.20;;;;;;4992448;28;20026;-48
2023/03/18 04:34:49;;;;;;;15.35;8.70;;;0.10;22.30;;;;;;4992232;28;20030;-48
2023/03/18 04:37:18;;;;;;;13.63;7.95;;;0.10;31.10;;;;;;4992155;28;20029;-47
2023/03/18 04:39:45;;;;;;;11.60;8.23;;;0.10;28.80;;;;;;4992292;28;20034;-50
2023/03/18 04:42:11;;;;;;;15.00;10.00;;;0.10;37.90;;;;;;4990809;28;20050;-47
2023/03/18 04:44:37;;;;;;;12.82;9.32;;;0.10;32.10;;;;;;4992202;28;20049;-51
2023/03/18 04:47:03;;;;;;;14.68;8.43;;;0.10;35.00;;;;;;4991968;28;20434;-47
2023/03/18 04:49:29;;;;;;;13.13;9.02;;;0.00;30.00;;;;;;4992113;28;20081;-47
2023/03/18 04:51:55;;;;;;;15.05;9.10;;;0.00;31.90;;;;;;4991874;28;20030;-50
2023/03/18 04:54:21;;;;;;;15.85;9.15;;;0.00;43.60;;;;;;4991869;28;20085;-50
2023/03/18 04:56:47;;;;;;;10.80;8.02;;;0.00;43.50;;;;;;4991881;28;20501;-48
2023/03/18 04:59:12;;;;;;;12.40;8.23;;;0.00;41.70;;;;;;4991954;28;20037;-48
2023/03/18 05:01:38;;;;;;;20.17;8.57;;;0.00;41.40;;;;;;4990225;28;20093;-48
2023/03/18 05:04:05;;;;;;;10.70;7.57;;;0.00;45.20;;;;;;4991887;28;20034;-48
2023/03/18 05:06:32;;;;;;;12.65;9.43;;;0.00;45.20;;;;;;4991905;28;20034;-49
2023/03/18 05:08:59;;;;;;;14.52;9.13;;;0.00;43.20;;;;;;4991647;28;20033;-49
2023/03/18 05:11:26;;;;;;;12.07;9.18;;;0.00;40.50;;;;;;4991734;28;20035;-48
2023/03/18 05:13:52;;;;;;;12.55;7.85;;;0.00;41.20;;;;;;4991612;28;20038;-47
2023/03/18 05:16:18;;;;;;;18.15;9.07;;;0.10;45.40;;;;;;4991328;28;20033;-51
2023/03/18 05:18:44;;;;;;;18.75;8.30;;;0.10;37.80;;;;;;4990805;28;20024;-47
2023/03/18 05:21:10;;;;;;;17.95;8.85;;;0.00;34.70;;;;;;4990761;28;20461;-46
2023/03/18 05:23:37;;;;;;;12.88;9.55;;;0.10;49.60;;;;;;4990907;28;20034;-48
2023/03/18 05:26:04;;;;;;;10.60;8.77;;;0.10;72.00;;;;;;4991680;28;20033;-47
2023/03/18 05:28:30;;;;;;;16.33;9.40;;;0.10;46.60;;;;;;4990322;28;20044;-47
2023/03/18 05:30:56;;;;;;;12.45;8.60;;;0.10;75.10;;;;;;4990707;28;20062;-50
2023/03/18 05:33:22;;;;;;;11.30;8.15;;;0.10;32.20;;;;;;4991772;28;20054;-46
2023/03/18 05:35:48;;;;;;;17.27;9.02;;;0.10;38.80;;;;;;4994987;28;20668;-48
2023/03/18 05:38:14;;;;;;;14.43;9.07;;;0.10;99.90;;;;;;4995465;28;20037;-48
2023/03/18 05:40:39;;;;;;;12.57;9.30;;;0.10;99.90;;;;;;4995425;28;20022;-48
2023/03/18 05:43:05;;;;;;;11.48;8.23;;;0.20;99.90;;;;;;4995464;28;20139;-49
2023/03/18 05:45:33;;;;;;;16.98;9.32;;;0.20;99.90;;;;;;4995209;28;20043;-48
2023/03/18 05:47:59;;;;;;;15.40;9.52;;;0.20;99.90;;;;;;4995218;28;20373;-50
2023/03/18 05:50:35;;;;;;;16.50;9.15;;;0.20;99.90;;;;;;4994258;28;20025;-47
2023/03/18 05:53:01;;;;;;;14.65;9.02;;;0.30;99.90;;;;;;4994715;28;20057;-49
2023/03/18 05:55:28;;;;;;;13.40;9.77;;;0.40;99.90;;;;;;4995340;28;20489;-47
2023/03/18 05:57:55;;;;;;;16.13;9.55;;;0.40;99.90;;;;;;4993456;28;20447;-50
2023/03/18 06:03:43;;;;;;;21.50;8.63;;;0.70;99.90;;;;;;4994844;28;20041;-48
2023/03/18 06:06:08;;;;;;;11.77;7.80;;;0.70;99.90;;;;;;4994824;28;20034;-49
2023/03/18 06:08:34;;;;;;;14.77;8.65;;;0.80;99.90;;;;;;4994652;28;20027;-47
2023/03/18 06:11:00;;;;;;;11.95;8.48;;;0.90;99.90;;;;;;4995125;28;20450;-48
2023/03/18 06:13:25;;;;;;;16.08;8.73;;;1.10;99.90;;;;;;4994971;28;20033;-49
2023/03/18 06:15:58;;;;;;;16.75;8.57;;;1.20;99.90;;;;;;4994665;28;20109;-47
2023/03/18 06:18:25;;;;;;;15.02;9.18;;;1.40;99.90;;;;;;4994932;28;20026;-48
2023/03/18 06:20:51;;;;;;;17.80;9.88;;;1.40;99.90;;;;;;4977127;28;20489;-48
2023/03/18 06:23:17;;;;;;;9.48;7.90;;;1.50;99.90;;;;;;4994724;28;20042;-53
2023/03/18 06:25:43;;;;;;;10.73;8.48;;;1.70;99.90;;;;;;4994375;28;20031;-48
2023/03/18 06:28:08;;;;;;;15.88;9.13;;;1.80;99.90;;;;;;4994453;28;20096;-53
2023/03/18 06:30:34;;;;;;;13.88;8.93;;;1.90;99.90;;;;;;4994673;28;20022;-48
2023/03/18 06:33:01;;;;;;;13.95;9.00;;;2.10;99.90;;;;;;4994668;28;20437;-53
2023/03/18 06:35:27;;;;;;;11.13;8.48;;;2.30;99.90;;;;;;4994358;28;20113;-48
2023/03/18 06:37:53;;;;;;;19.40;9.63;;;2.50;99.90;;;;;;4994464;28;20525;-51
2023/03/18 06:40:19;;;;;;;12.70;9.38;;;2.70;99.90;;;;;;4994395;28;20045;-52
2023/03/18 06:42:45;;;;;;;18.02;9.20;;;2.90;99.90;;;;;;4992993;28;20728;-51
2023/03/18 06:45:12;;;;;;;14.75;9.35;;;3.10;99.90;;;;;;4994310;28;20034;-52
2023/03/18 06:47:38;;;;;;;12.98;9.02;;;3.30;99.90;;;;;;4994215;28;20425;-48
2023/03/18 06:50:04;;;;;;;22.67;9.93;;;3.50;99.90;;;;;;4992700;28;20034;-48
2023/03/18 06:52:30;;;;;;;13.98;8.98;;;3.70;99.90;;;;;;4993915;28;20106;-47
2023/03/18 06:54:56;;;;;;;14.20;10.38;;;4.00;93.40;;;;;;4993802;28;20069;-52
2023/03/18 06:57:22;;;;;;;16.65;9.80;;;4.20;1.00;;;;;;4992202;28;20050;-50
2023/03/18 06:59:48;;;;;;;11.73;8.88;;;4.50;1.00;;;;;;4993584;28;20089;-48
2023/03/18 07:02:14;;;;;;;16.00;10.43;;;4.80;1.00;;;;;;4994127;28;20031;-53
2023/03/18 07:04:39;;;;;;;16.52;11.38;;;5.20;1.00;;;;;;4992688;28;20057;-50
2023/03/18 07:07:06;;;;;;;15.02;10.60;;;5.50;1.00;;;;;;4993272;28;20026;-49
2023/03/18 07:09:32;;;;;;;23.08;16.90;;;5.90;1.00;;;;;;4993446;28;20023;-52
2023/03/18 07:11:59;;;;;;;18.77;16.60;;;6.20;1.00;;;;;;4993752;28;20113;-47
2023/03/18 07:14:25;;;;;;;14.25;9.65;;;6.50;1.00;;;;;;4993586;28;20026;-49
2023/03/18 07:16:51;;;;;;;13.95;8.65;;;6.90;1.00;;;;;;4993509;28;20053;-50
2023/03/18 07:19:17;;;;;;;17.65;9.70;;;7.20;1.00;;;;;;4993163;28;20635;-50
2023/03/18 07:21:44;;;;;;;17.00;9.55;;;7.30;1.00;;;;;;4993145;28;20121;-49
2023/03/18 07:24:11;;;;;;;18.60;11.30;;;7.60;99.90;;;;;;4993607;28;20027;-50
2023/03/18 07:26:37;;;;;;;17.60;9.27;;;7.70;99.90;;;;;;4991940;28;20117;-49
2023/03/18 07:29:04;;;;;;;12.98;9.50;;;7.80;97.60;;;;;;4992628;28;20030;-51
2023/03/18 07:31:29;;;;;;;23.67;10.93;;;7.90;84.30;;;;;;4992659;28;20030;-49
2023/03/18 07:33:56;;;;;;;16.00;10.50;;;8.10;1.00;;;;;;4992648;28;20026;-52
2023/03/18 07:36:22;;;;;;;21.05;11.10;;;8.20;99.90;;;;;;4993095;28;20448;-48
2023/03/18 07:38:48;;;;;;;17.17;8.88;;;8.30;1.00;;;;;;4993091;28;20410;-52
2023/03/18 07:41:14;;;;;;;14.48;8.35;;;8.40;99.90;;;;;;4991712;28;20035;-50
2023/03/18 07:43:39;;;;;;;14.05;9.07;;;8.50;99.90;;;;;;4992971;28;20022;-54
2023/03/18 07:46:06;;;;;;;17.30;8.82;;;8.60;99.90;;;;;;4992380;28;20026;-48
2023/03/18 07:48:33;;;;;;;14.50;9.13;;;8.60;99.90;;;;;;4991497;28;20129;-54
2023/03/18 07:50:59;;;;;;;15.93;9.90;;;8.60;99.90;;;;;;4993064;28;20026;-55
2023/03/18 07:53:26;;;;;;;14.32;10.15;;;8.50;99.90;;;;;;4993157;28;20034;-52
2023/03/18 07:55:52;;;;;;;18.48;9.27;;;8.60;1.00;;;;;;4992524;28;20036;-51
2023/03/18 07:58:18;;;;;;;18.88;9.23;;;8.80;99.90;;;;;;4993048;28;20105;-50
2023/03/18 08:00:43;;;;;;;17.77;9.23;;;8.90;99.90;;;;;;4992831;28;20114;-51
2023/03/18 08:03:11;;;;;;;13.13;9.70;;;8.90;68.60;;;;;;4992672;28;20096;-53
2023/03/18 08:05:37;;;;;;;15.65;10.10;;;9.00;99.90;;;;;;4991028;28;20030;-48
2023/03/18 08:08:04;;;;;;;16.70;8.75;;;9.10;66.10;;;;;;4992674;28;20133;-50
2023/03/18 08:10:30;;;;;;;14.05;8.68;;;9.20;99.90;;;;;;4992828;28;20422;-51
2023/03/18 08:12:56;;;;;;;15.27;9.02;;;9.40;99.90;;;;;;4991126;28;20030;-51
2023/03/18 08:15:22;;;;;;;21.25;8.55;;;9.40;83.80;;;;;;4991073;28;20030;-50
2023/03/18 08:17:49;;;;;;;15.25;9.68;;;9.50;1.00;;;;;;4992353;28;20107;-53
2023/03/18 08:20:15;;;;;;;13.52;8.27;;;9.50;99.90;;;;;;4992686;28;20024;-53
2023/03/18 08:22:41;;;;;;;14.05;9.25;;;9.50;1.00;;;;;;4991775;28;20037;-50
2023/03/18 08:25:07;;;;;;;15.48;9.43;;;9.60;32.30;;;;;;4992483;28;20045;-49
2023/03/18 08:27:32;;;;;;;13.35;8.88;;;9.60;1.00;;;;;;4992047;28;20061;-52
2023/03/18 08:29:59;;;;;;;16.38;8.85;;;9.80;99.90;;;;;;4992237;28;20034;-48
2023/03/18 08:32:24;;;;;;;11.90;8.43;;;10.00;99.90;;;;;;4992236;28;20069;-50
2023/03/18 08:34:51;;;;;;;18.48;11.88;;;10.10;99.90;;;;;;4991835;28;20058;-52
2023/03/18 08:37:22;;;;;;;13.00;8.77;;;10.10;99.90;;;;;;4991957;28;20034;-52
2023/03/18 08:39:47;;;;;;;13.65;9.00;;;10.30;99.90;;;;;;4991727;28;20082;-51
2023/03/18 08:42:13;;;;;;;14.23;8.18;;;10.40;99.90;;;;;;4991842;28;20018;-48
2023/03/18 08:44:39;;;;;;;20.20;9.93;;;10.80;1.00;;;;;;4990131;28;20066;-50
2023/03/18 08:47:05;;;;;;;20.20;10.02;;;11.00;1.00;;;;;;4990014;28;20037;-50
2023/03/18 08:49:32;;;;;;;13.50;8.98;;;10.90;1.00;;;;;;4991779;28;20030;-49
2023/03/18 08:51:58;;;;;;;11.98;9.88;;;10.90;1.00;;;;;;4991546;28;20046;-51
2023/03/18 08:54:24;;;;;;;16.27;10.43;;;11.10;1.00;;;;;;4991630;28;20026;-49
2023/03/18 08:56:51;;;;;;;14.77;10.02;;;11.30;1.00;;;;;;4991468;28;20485;-53
2023/03/18 08:59:17;;;;;;;16.13;10.15;;;11.40;1.00;;;;;;4991624;28;20042;-52
2023/03/18 09:01:42;;;;;;;17.02;8.65;;;11.50;1.00;;;;;;4990926;28;20030;-48
2023/03/18 09:04:08;;;;;;;18.48;9.52;;;11.80;1.00;;;;;;4992025;28;20401;-48
2023/03/18 09:06:35;;;;;;;15.45;8.95;;;11.90;99.90;;;;;;4991236;28;20034;-52
2023/03/18 09:09:00;;;;;;;15.48;9.23;;;12.10;1.00;;;;;;4994021;28;20022;-51
2023/03/18 09:11:26;;;;;;;14.85;9.75;;;12.50;99.90;;;;;;4996299;28;20366;-52
2023/03/18 09:13:52;;;;;;;20.90;9.23;;;12.90;99.90;;;;;;4995396;28;20121;-50
2023/03/18 09:16:18;;;;;;;15.57;8.63;;;13.00;99.90;;;;;;4995785;28;20101;-50
2023/03/18 09:19:12;;;;;;;20.90;8.82;;;12.90;99.90;;;;;;4994036;28;20046;-54
2023/03/18 09:21:37;;;;;;;13.30;8.43;;;13.20;1.00;;;;;;4995516;28;20027;-49
2023/03/18 09:24:05;;;;;;;20.92;9.75;;;13.20;1.00;;;;;;4996080;28;20045;-53
2023/03/18 09:26:30;;;;;;;10.60;8.45;;;13.30;1.00;;;;;;4995574;28;20039;-52
2023/03/18 09:28:56;;;;;;;14.40;9.52;;;13.60;1.00;;;;;;4994201;28;20030;-55
2023/03/18 09:31:21;;;;;;;16.80;8.65;;;13.80;1.00;;;;;;4995390;28;20481;-50
2023/03/18 09:33:47;;;;;;;17.45;9.73;;;13.90;99.90;;;;;;4995295;28;20081;-51
2023/03/18 09:36:13;;;;;;;17.05;8.82;;;14.10;99.90;;;;;;4995632;28;20042;-53
2023/03/18 09:38:40;;;;;;;13.70;9.85;;;14.40;17.00;;;;;;4993957;28;20035;-48
2023/03/18 09:41:11;;;;;;;18.75;9.35;;;14.40;1.00;;;;;;4995596;28;20062;-50
2023/03/18 09:43:50;;;;;;;15.73;9.25;;;14.50;99.90;;;;;;4994777;28;20033;-52
2023/03/18 09:46:41;;;;;;;17.58;8.38;;;14.60;1.00;;;;;;4995106;28;20117;-53
2023/03/18 09:49:34;;;;;;;15.27;9.43;;;14.80;1.00;;;;;;4995426;28;20019;-53
2023/03/18 09:52:15;;;;;;;18.67;8.98;;;15.10;99.90;;;;;;4995437;28;20022;-53
2023/03/18 09:55:09;;;;;;;20.88;9.73;;;15.10;14.60;;;;;;4995125;28;20472;-53
2023/03/18 09:57:41;;;;;;;16.35;10.00;;;15.20;1.00;;;;;;4995239;28;20026;-57
2023/03/18 10:00:23;;;;;;;16.08;9.27;;;15.60;73.30;;;;;;4995376;28;20034;-55
2023/03/18 10:02:58;;;;;;;11.50;8.20;;;16.00;99.90;;;;;;4995021;28;20031;-52
2023/03/18 10:05:33;;;;;;;14.80;8.63;;;15.80;98.20;;;;;;4995053;28;20038;-52
2023/03/18 10:08:20;;;;;;;12.02;8.50;;;15.50;1.00;;;;;;4994681;28;20034;-51
2023/03/18 10:10:47;;;;;;;16.83;8.65;;;16.00;1.00;;;;;;4987417;28;20050;-57
2023/03/18 10:13:29;;;;;;;15.48;9.23;;;16.00;1.00;;;;;;4996206;28;20034;-52
2023/03/18 10:15:58;;;;;;;15.85;10.43;;;15.80;99.90;;;;;;5008194;28;20034;-50
2023/03/18 10:18:32;;;;;;;16.80;10.82;;;15.90;1.00;;;;;;5008047;28;20034;-56
2023/03/18 10:21:26;;;;;;;17.48;9.90;;;16.10;99.90;;;;;;4993585;28;20025;-51
2023/03/18 10:24:23;;;;;;;17.50;9.77;;;16.40;1.00;;;;;;4994066;28;20069;-54
2023/03/18 10:27:12;;;;;;;22.95;10.13;;;16.90;99.90;;;;;;4993987;28;20386;-56
2023/03/18 10:29:49;;;;;;;14.55;9.52;;;16.60;99.90;;;;;;4992375;28;20027;-56
2023/03/18 10:32:18;;;;;;;14.18;9.10;;;16.60;99.90;;;;;;4974919;28;20029;-56
2023/03/18 10:34:43;;;;;;;13.80;10.27;;;16.50;99.90;;;;;;4973606;28;20037;-57
2023/03/18 10:37:36;;;;;;;21.88;9.57;;;16.10;99.90;;;;;;4973998;28;20015;-54
2023/03/18 10:40:09;;;;;;;15.48;10.38;;;16.20;99.90;;;;;;4976588;28;20035;-53
2023/03/18 10:42:37;;;;;;;12.60;9.85;;;16.10;99.90;;;;;;4992814;28;20024;-55
2023/03/18 10:45:16;;;;;;;18.50;10.18;;;15.80;99.90;;;;;;4993433;28;20036;-56
2023/03/18 10:47:45;;;;;;;13.63;10.57;;;16.00;99.90;;;;;;4993205;28;20054;-54
2023/03/18 10:50:14;;;;;;;18.67;10.27;;;16.20;99.90;;;;;;4994243;28;20053;-58
2023/03/18 10:53:03;;;;;;;17.90;10.75;;;16.30;99.90;;;;;;5000514;28;20029;-57
2023/03/18 10:55:35;;;;;;;13.95;10.90;;;16.50;99.90;;;;;;5013673;28;20056;-57
2023/03/18 10:58:15;;;;;;;14.50;11.10;;;17.00;42.40;;;;;;5013439;28;20044;-57
2023/03/18 11:00:41;;;;;;;16.23;9.70;;;17.80;9.60;;;;;;5012546;28;20026;-57
2023/03/18 11:03:22;;;;;;;27.45;9.77;;;19.00;1.00;;;;;;4993173;28;20026;-56
2023/03/18 11:05:50;;;;;;;12.55;10.15;;;19.30;1.00;;;;;;4993077;28;20049;-57
2023/03/18 11:08:45;;;;;;;14.85;10.48;;;19.10;1.00;;;;;;4993162;28;20049;-58
2023/03/18 11:11:27;;;;;;;13.60;10.82;;;20.30;1.00;;;;;;4979264;28;20674;-58
2023/03/18 11:13:55;;;;;;;15.55;9.43;;;21.10;1.00;;;;;;4993406;28;20121;-59
2023/03/18 11:16:44;;;;;;;18.20;10.18;;;20.70;1.00;;;;;;4993758;28;20049;-56
2023/03/18 11:19:36;;;;;;;15.55;9.82;;;20.40;99.90;;;;;;4993812;28;20661;-57
2023/03/18 11:22:17;;;;;;;14.68;9.50;;;20.20;1.00;;;;;;4993930;28;20030;-58
2023/03/18 11:24:43;;;;;;;19.40;10.35;;;20.40;1.00;;;;;;4993522;28;20049;-58
2023/03/18 11:27:15;;;;;;;19.52;10.27;;;21.20;1.00;;;;;;4993284;28;20042;-56
2023/03/18 11:29:49;;;;;;;17.35;10.50;;;21.50;1.00;;;;;;4992358;28;20456;-58
2023/03/18 11:32:24;;;;;;;13.02;9.88;;;22.00;19.30;;;;;;4966332;28;20089;-58
2023/03/18 11:34:56;;;;;;;14.02;10.23;;;22.80;15.30;;;;;;4966137;28;20042;-59
2023/03/18 11:37:29;;;;;;;14.07;9.60;;;22.90;14.80;;;;;;4981462;28;20069;-59
2023/03/18 11:40:11;;;;;;;10.25;8.35;;;23.40;1.00;;;;;;4972408;28;20375;-59
2023/03/18 11:42:39;;;;;;;18.50;9.60;;;23.80;12.90;;;;;;4963173;28;20034;-58
2023/03/18 11:45:25;;;;;;;17.90;10.48;;;23.60;1.00;;;;;;4963106;28;20027;-58
2023/03/18 11:47:52;;;;;;;17.92;10.57;;;23.00;1.00;;;;;;4980630;28;20049;-59
2023/03/18 11:50:22;;;;;;;22.70;9.68;;;23.50;1.00;;;;;;4981416;28;20109;-58
2023/03/18 11:53:16;;;;;;;22.13;10.07;;;22.70;1.00;;;;;;4965868;28;20042;-58
2023/03/18 11:55:50;;;;;;;18.98;9.88;;;23.00;1.00;;;;;;4962597;28;20474;-59
2023/03/18 11:58:31;;;;;;;12.40;9.55;;;22.90;1.00;;;;;;4981263;28;20042;-59
2023/03/18 12:01:25;;;;;;;22.42;10.85;;;23.40;1.00;;;;;;4980739;28;20065;-59
2023/03/18 12:04:18;;;;;;;11.63;9.70;;;22.90;1.00;;;;;;4981140;28;20030;-59
2023/03/18 12:07:16;;;;;;;12.80;9.30;;;22.50;1.00;;;;;;4966300;28;20038;-59
2023/03/18 12:10:35;;;;;;;14.40;9.35;;;22.60;1.00;;;;;;4981037;28;20374;-59
2023/03/18 12:13:07;;;;;;;19.33;10.27;;;22.90;1.00;;;;;;4981315;28;20082;-59
2023/03/18 12:15:52;;;;;;;15.25;9.55;;;22.90;1.00;;;;;;4981581;28;20600;-56
2023/03/18 12:18:41;;;;;;;19.05;11.65;;;23.00;1.00;;;;;;4981490;28;20584;-58
2023/03/18 12:21:19;;;;;;;20.60;11.48;;;22.80;1.00;;;;;;4981360;28;20120;-59
2023/03/18 12:23:59;;;;;;;13.43;11.07;;;23.00;1.00;;;;;;4981120;28;20389;-59
2023/03/18 12:26:31;;;;;;;14.70;10.65;;;22.60;1.00;;;;;;4962601;28;20062;-57
2023/03/18 12:29:32;;;;;;;16.67;11.38;;;22.40;1.00;;;;;;4968717;28;20406;-58
2023/03/18 12:32:07;;;;;;;19.00;11.00;;;22.50;1.00;;;;;;4976896;28;20058;-60
2023/03/18 12:34:35;;;;;;;14.93;10.05;;;23.40;1.00;;;;;;4980570;28;20026;-57
2023/03/18 12:37:42;;;;;;;24.25;10.93;;;23.80;1.00;;;;;;4970914;28;20046;-58
2023/03/18 12:40:20;;;;;;;16.70;10.45;;;23.40;1.00;;;;;;4981396;28;20098;-59
2023/03/18 12:42:45;;;;;;;22.05;11.63;;;23.80;1.00;;;;;;4962415;28;20038;-59
2023/03/18 12:45:22;;;;;;;19.02;10.77;;;23.50;1.00;;;;;;4961445;28;20386;-59
2023/03/18 12:47:55;;;;;;;16.80;12.02;;;24.50;1.00;;;;;;4961679;28;20145;-59
2023/03/18 12:50:25;;;;;;;14.93;11.10;;;24.80;1.00;;;;;;4979636;28;20113;-59
2023/03/18 12:53:01;;;;;;;15.43;11.85;;;24.50;6.90;;;;;;4979828;28;20442;-59
2023/03/18 12:55:40;;;;;;;22.05;10.95;;;24.70;9.90;;;;;;4979480;28;20430;-59
2023/03/18 12:58:19;;;;;;;19.75;10.93;;;24.60;9.60;;;;;;4965542;28;20105;-59
2023/03/18 13:00:53;;;;;;;16.33;10.45;;;24.20;3.40;;;;;;4971297;28;20038;-59
2023/03/18 13:03:31;;;;;;;15.35;10.95;;;25.20;1.00;;;;;;4969444;28;20039;-59